Carlsbad, NM

11:17 AM MDT on May 20, 2019 (GMT -0600)
South Carlsbad | | Change Station
Active Advisory: High Wind Warning

Elev 3153 ft 32.40 °N, 104.25 °W | Updated 27 seconds ago

Mostly Cloudy
Mostly Cloudy
81.7 °F
Feels Like 80 °F
N
1.1
Wind Variable Wind from SW
Gusts 0.0 mph

Today
High -- | Low -- °F
--% Chance of Precip.
Yesterday
High -- | Low -- °F
Precip. -- in
Pressure 29.55 in
Visibility 10.0 miles
Clouds Clear
Heat Index 80 °F
Dew Point 40 °F
Humidity 23%
Rainfall 0.00 in
Snow Depth Not available.
5:55 AM 7:51 PM
Waning Gibbous, 96% visible
METAR KCNM 201553Z AUTO 00000KT 10SM CLR 24/13 A2971 RMK AO2 SLP004 T02390128
Pressure 29.55 in
Visibility 10.0 miles
Clouds Clear
Heat Index 80 °F
Dew Point 40 °F
Humidity 23%
Rainfall 0.00 in
Snow Depth Not available.
5:55 AM 7:51 PM
Waning Gibbous, 96% visible
METAR KCNM 201553Z AUTO 00000KT 10SM CLR 24/13 A2971 RMK AO2 SLP004 T02390128

Get Your Daily Forecast Email!

Thanks for signing up!

Be on the lookout for a verification email in your inbox.

You'll start receiving severe weather alerts in your inbox..

×

10-Day Weather Forecast

Almanac

Astronomy

May. 20, 2019 Rise Set
Actual Time
Civil Twilight
Nautical Twilight
Astronomical Twilight
Moon
Length of Visible Light
Length of Day
Tomorrow will be .
, % of the Moon is Illuminated

Today's Extremes

State Highs State Lows

Community

WunderPhotos

Category 6

Welcome to Category 6. This is the collective home for Weather Underground's featured writeups by Dr. Jeff Masters (right), Bob Henson (left), Chris Burt, and other regular contributors.

Nearby

Air Quality

  Air Quality AQ Index Pollutant
Not available.

Snow Depth

Station Depth Elevation

Earthquake Activity

City Distance Mag. Time & Date
Minimum magnitude displayed is 2.5.

Coastal Water Temperatures

Place Temperature

Stations

Nearby Weather Stations

Station Location Temp. Windchill Dew Point Humidity Wind Precip. Elev Updated Type
                   

Watches & Warnings

High Wind Warning
Issued: 2:31 AM MDT May. 20, 2019 – National Weather Service

... High Wind Warning in effect from 4 PM CDT /3 PM MDT/ this
afternoon to 4 am CDT /3 am MDT/ Tuesday...

* timing... this afternoon through early Tuesday morning.

* Winds... southwest to west 35 to 45 mph. Gusts up to 60 to 65
mph.

* Impacts... high winds could make driving difficult for
motorists driving high profile vehicles. Aviation interests
may experience localized but extreme turbulence, or strong
downward airflows.

Precautionary/preparedness actions...

A High Wind Warning means a hazardous high wind event is expected
or occurring. Sustained wind speeds of at least 40 mph or gusts
of 58 mph or more can lead to property damage.